createdAt,value
2023-02-25T00:00:31.290Z,58.78
2023-02-25T00:02:59.999Z,58.26
2023-02-25T00:05:27.232Z,58.47
2023-02-25T00:07:54.360Z,58.01
2023-02-25T00:10:21.647Z,57.85
2023-02-25T00:12:48.356Z,58.05
2023-02-25T00:15:15.018Z,58.11
2023-02-25T00:17:42.133Z,57.58
2023-02-25T00:20:16.985Z,58.04
2023-02-25T00:22:43.836Z,57.38
2023-02-25T00:25:10.569Z,57.27
2023-02-25T00:27:37.588Z,57.38
2023-02-25T00:30:05.675Z,57.16
2023-02-25T00:32:32.597Z,57.32
2023-02-25T00:34:59.511Z,57.48
2023-02-25T00:37:26.406Z,57.64
2023-02-25T00:39:53.125Z,57.67
2023-02-25T00:42:20.269Z,58.15
2023-02-25T00:44:48.702Z,57.75
2023-02-25T00:47:19.429Z,57.93
2023-02-25T00:49:49.495Z,58.33
2023-02-25T00:52:16.629Z,58.21
2023-02-25T00:54:43.411Z,58.25
2023-02-25T00:57:10.381Z,58.56
2023-02-25T00:59:37.127Z,58.78
2023-02-25T01:02:04.473Z,58.18
2023-02-25T01:04:31.276Z,58.25
2023-02-25T01:06:59.035Z,58.56
2023-02-25T01:09:26.242Z,58.24
2023-02-25T01:11:53.308Z,58.03
2023-02-25T01:14:23.256Z,57.57
2023-02-25T01:16:51.239Z,57.79
2023-02-25T01:19:23.494Z,57.69
2023-02-25T01:21:53.373Z,57.71
2023-02-25T01:24:31.014Z,57.79
2023-02-25T01:27:06.734Z,57.59
2023-02-25T01:29:39.309Z,57.76
2023-02-25T01:32:09.189Z,57.58
2023-02-25T01:34:36.075Z,57.80
2023-02-25T01:37:04.254Z,57.88
2023-02-25T01:39:32.401Z,57.93
2023-02-25T01:42:02.198Z,58.09
2023-02-25T01:44:34.268Z,57.91
2023-02-25T01:47:01.559Z,57.86
2023-02-25T01:49:33.068Z,57.46
2023-02-25T01:52:22.276Z,57.35
2023-02-25T01:54:54.197Z,57.34
2023-02-25T01:57:21.354Z,57.44
2023-02-25T01:59:49.405Z,57.05
2023-02-25T02:02:19.485Z,57.11
2023-02-25T02:04:50.591Z,57.17
2023-02-25T02:07:21.444Z,57.12
2023-02-25T02:09:57.393Z,56.87
2023-02-25T02:12:26.769Z,56.68
2023-02-25T02:14:53.988Z,57.08
2023-02-25T02:17:30.036Z,56.48
2023-02-25T02:20:23.254Z,56.56
2023-02-25T02:23:22.234Z,56.83
2023-02-25T02:26:08.698Z,56.57
2023-02-25T02:29:20.150Z,56.54
2023-02-25T02:31:52.858Z,56.37
2023-02-25T02:34:47.184Z,56.41
2023-02-25T02:37:24.766Z,56.53
2023-02-25T02:39:53.652Z,56.47
2023-02-25T02:43:00.340Z,56.85
2023-02-25T02:46:08.790Z,56.99
2023-02-25T02:48:51.733Z,56.81
2023-02-25T02:51:42.835Z,56.94
2023-02-25T02:54:11.677Z,57.09
2023-02-25T02:56:40.858Z,57.06
2023-02-25T02:59:33.408Z,57.00
2023-02-25T03:02:06.637Z,57.01
2023-02-25T03:04:37.646Z,57.22
2023-02-25T03:07:08.297Z,57.17
2023-02-25T03:09:41.073Z,57.16
2023-02-25T03:12:07.956Z,57.49
2023-02-25T03:14:37.195Z,57.60
2023-02-25T03:17:19.963Z,57.59
2023-02-25T03:19:51.363Z,57.58
2023-02-25T03:22:27.819Z,57.70
2023-02-25T03:25:14.850Z,57.73
2023-02-25T03:27:46.762Z,57.79
2023-02-25T03:30:29.798Z,58.12
2023-02-25T03:33:01.924Z,58.06
2023-02-25T03:35:30.589Z,57.74
2023-02-25T03:38:07.539Z,57.71
2023-02-25T03:40:36.920Z,58.05
2023-02-25T03:43:30.732Z,57.91
2023-02-25T03:45:59.527Z,58.02
2023-02-25T03:48:27.665Z,57.57
2023-02-25T03:50:59.451Z,57.85
2023-02-25T03:53:28.086Z,58.00
2023-02-25T03:56:08.489Z,57.99
2023-02-25T03:58:38.758Z,57.53
2023-02-25T04:01:09.845Z,57.85
2023-02-25T04:03:36.729Z,57.78
2023-02-25T04:06:04.029Z,57.59
2023-02-25T04:08:30.854Z,57.68
2023-02-25T04:10:57.560Z,57.98
2023-02-25T04:13:24.403Z,57.65
2023-02-25T04:15:51.419Z,57.66
2023-02-25T04:18:19.907Z,57.71
2023-02-25T04:20:46.629Z,58.14
2023-02-25T04:23:14.767Z,58.03
2023-02-25T04:25:41.606Z,58.07
2023-02-25T04:28:08.416Z,57.91
2023-02-25T04:30:35.324Z,57.80
2023-02-25T04:33:02.186Z,57.84
2023-02-25T04:35:28.867Z,57.94
2023-02-25T04:37:55.721Z,57.79
2023-02-25T04:40:24.018Z,58.15
2023-02-25T04:42:51.153Z,57.72
2023-02-25T04:45:18.209Z,57.68
2023-02-25T04:47:45.079Z,57.70
2023-02-25T04:50:12.462Z,57.81
2023-02-25T04:52:39.697Z,57.71
2023-02-25T04:55:07.028Z,57.84
2023-02-25T04:57:33.781Z,57.99
2023-02-25T05:00:00.502Z,57.62
2023-02-25T05:02:27.244Z,57.58
2023-02-25T05:04:53.957Z,57.97
2023-02-25T05:07:20.699Z,57.82
2023-02-25T05:09:47.351Z,57.64
2023-02-25T05:12:14.753Z,57.60
2023-02-25T05:14:41.610Z,58.10
2023-02-25T05:17:08.400Z,57.60
2023-02-25T05:19:35.077Z,57.81
2023-02-25T05:22:01.817Z,57.67
2023-02-25T05:24:28.528Z,58.03
2023-02-25T05:26:55.316Z,57.94
2023-02-25T05:29:22.117Z,57.70
2023-02-25T05:31:51.789Z,57.72
2023-02-25T05:34:18.842Z,57.56
2023-02-25T05:36:46.861Z,57.61
2023-02-25T05:39:14.550Z,57.37
2023-02-25T05:41:41.438Z,57.30
2023-02-25T05:44:09.850Z,57.27
2023-02-25T05:46:36.594Z,57.16
2023-02-25T05:49:03.581Z,56.87
2023-02-25T05:51:30.347Z,57.04
2023-02-25T05:53:57.535Z,56.63
2023-02-25T05:56:26.247Z,56.59
2023-02-25T05:58:54.465Z,56.57
2023-02-25T06:01:24.983Z,56.65
2023-02-25T06:03:52.521Z,56.29
2023-02-25T06:06:24.796Z,56.06
2023-02-25T06:08:51.966Z,56.41
2023-02-25T06:11:24.603Z,56.33
2023-02-25T06:13:53.078Z,55.87
2023-02-25T06:16:20.196Z,55.76
2023-02-25T06:18:48.083Z,55.70
2023-02-25T06:21:15.631Z,55.79
2023-02-25T06:23:44.131Z,55.82
2023-02-25T06:26:12.976Z,55.76
2023-02-25T06:28:39.977Z,56.10
2023-02-25T06:31:11.077Z,55.96
2023-02-25T06:33:39.466Z,55.99
2023-02-25T06:36:07.369Z,55.93
2023-02-25T06:38:34.997Z,56.36
2023-02-25T06:41:23.833Z,55.95
2023-02-25T06:43:52.334Z,56.44
2023-02-25T06:46:25.106Z,56.41
2023-02-25T06:48:52.691Z,56.24
2023-02-25T06:51:19.399Z,56.97
2023-02-25T06:53:47.483Z,57.82
2023-02-25T06:56:15.511Z,58.89
2023-02-25T06:58:42.877Z,59.52
2023-02-25T07:01:12.011Z,60.03
2023-02-25T07:03:39.323Z,60.64
2023-02-25T07:06:06.656Z,61.10
2023-02-25T07:08:33.628Z,61.85
2023-02-25T07:11:18.661Z,61.69
2023-02-25T07:13:49.770Z,61.81
2023-02-25T07:16:17.307Z,62.19
2023-02-25T07:18:44.709Z,62.10
2023-02-25T07:21:14.834Z,61.83
2023-02-25T07:23:42.672Z,61.74
2023-02-25T07:26:11.344Z,62.03
2023-02-25T07:28:38.422Z,62.09
2023-02-25T07:31:14.605Z,62.56
2023-02-25T07:33:41.967Z,62.85
2023-02-25T07:36:09.762Z,62.64
2023-02-25T07:38:37.578Z,62.62
2023-02-25T07:41:09.119Z,62.95
2023-02-25T07:43:36.160Z,63.13
2023-02-25T07:46:03.078Z,63.33
2023-02-25T07:48:30.337Z,63.48
2023-02-25T07:50:57.416Z,63.41
2023-02-25T07:53:24.531Z,63.45
2023-02-25T07:55:51.274Z,62.10
2023-02-25T07:58:18.054Z,61.70
2023-02-25T08:00:46.303Z,60.62
2023-02-25T08:03:13.187Z,60.35
2023-02-25T08:05:39.936Z,60.13
2023-02-25T08:08:06.919Z,59.25
2023-02-25T08:10:34.125Z,59.38
2023-02-25T08:13:01.011Z,58.01
2023-02-25T08:15:28.050Z,58.21
2023-02-25T08:17:55.984Z,57.74
2023-02-25T08:20:22.977Z,57.75
2023-02-25T08:22:49.868Z,56.85
2023-02-25T08:25:16.842Z,57.34
2023-02-25T08:27:44.373Z,57.70
2023-02-25T08:30:11.804Z,57.84
2023-02-25T08:32:38.819Z,57.88
2023-02-25T08:35:05.978Z,57.41
2023-02-25T08:37:33.485Z,57.58
2023-02-25T08:40:00.433Z,58.17
2023-02-25T08:42:27.704Z,57.51
2023-02-25T08:44:54.466Z,56.78
2023-02-25T08:47:21.390Z,57.38
2023-02-25T08:49:48.451Z,57.44
2023-02-25T08:52:15.303Z,57.40
2023-02-25T08:54:42.095Z,57.73
2023-02-25T08:57:09.064Z,57.36
2023-02-25T08:59:38.642Z,55.96
2023-02-25T09:02:09.457Z,57.01
2023-02-25T09:04:36.283Z,56.51
2023-02-25T09:07:03.527Z,56.93
2023-02-25T09:09:51.710Z,56.04
2023-02-25T09:12:19.033Z,56.62
2023-02-25T09:14:45.927Z,54.99
2023-02-25T09:17:12.877Z,54.53
2023-02-25T09:19:39.597Z,55.61
2023-02-25T09:22:07.306Z,54.72
2023-02-25T09:24:34.299Z,54.54
2023-02-25T09:27:07.691Z,53.05
2023-02-25T09:29:35.524Z,53.47
2023-02-25T09:32:02.552Z,53.27
2023-02-25T09:34:30.433Z,53.74
2023-02-25T09:36:57.595Z,53.41
2023-02-25T09:39:24.450Z,53.24
2023-02-25T09:42:11.203Z,53.57
2023-02-25T09:44:44.822Z,54.10
2023-02-25T09:47:16.378Z,53.56
2023-02-25T09:49:50.180Z,53.87
2023-02-25T09:52:19.702Z,53.90
2023-02-25T09:54:48.223Z,53.74
2023-02-25T09:57:21.797Z,54.29
2023-02-25T09:59:52.153Z,53.34
2023-02-25T10:02:27.749Z,52.18
2023-02-25T10:05:14.869Z,51.94
2023-02-25T10:08:14.005Z,50.73
2023-02-25T10:10:48.040Z,52.39
2023-02-25T10:13:36.217Z,53.31
2023-02-25T10:16:15.110Z,52.73
2023-02-25T10:19:08.251Z,52.26
2023-02-25T10:22:00.882Z,51.53
2023-02-25T10:24:39.173Z,51.13
2023-02-25T10:27:30.284Z,51.07
2023-02-25T10:30:36.366Z,50.46
2023-02-25T10:33:16.058Z,50.90
2023-02-25T10:35:44.663Z,51.01
2023-02-25T10:38:12.868Z,51.23
2023-02-25T10:40:41.045Z,50.73
2023-02-25T10:43:20.256Z,49.24
2023-02-25T10:45:50.097Z,47.98
2023-02-25T10:48:22.475Z,47.77
2023-02-25T10:51:21.664Z,48.44
2023-02-25T10:53:57.554Z,48.10
2023-02-25T10:56:38.361Z,45.89
2023-02-25T10:59:06.582Z,45.38
2023-02-25T11:01:42.907Z,45.75
2023-02-25T11:04:15.936Z,46.95
2023-02-25T11:06:43.519Z,45.35
2023-02-25T11:09:32.933Z,45.28
2023-02-25T11:12:11.730Z,45.26
2023-02-25T11:14:39.704Z,45.55
2023-02-25T11:17:13.234Z,44.87
2023-02-25T11:19:43.101Z,44.99
2023-02-25T11:22:24.606Z,44.53
2023-02-25T11:24:59.785Z,44.91
2023-02-25T11:27:40.411Z,45.24
2023-02-25T11:30:23.336Z,46.04
2023-02-25T11:32:54.600Z,45.52
2023-02-25T11:35:30.128Z,44.70
2023-02-25T11:38:06.014Z,45.39
2023-02-25T11:40:44.216Z,45.26
2023-02-25T11:46:05.305Z,46.55
2023-02-25T11:49:13.632Z,46.80
2023-02-25T11:51:54.860Z,48.37
2023-02-25T11:54:45.477Z,49.32
2023-02-25T11:57:27.475Z,48.92
2023-02-25T12:00:25.760Z,49.02
2023-02-25T12:03:15.865Z,49.50
2023-02-25T12:06:13.208Z,49.31
2023-02-25T12:09:28.504Z,49.30
2023-02-25T12:12:06.400Z,49.17
2023-02-25T12:15:03.755Z,49.27
2023-02-25T12:17:55.349Z,50.26
2023-02-25T12:20:31.223Z,49.31
2023-02-25T12:23:25.020Z,49.63
2023-02-25T12:26:03.754Z,48.47
2023-02-25T12:28:49.752Z,46.58
2023-02-25T12:31:54.650Z,46.27
2023-02-25T12:34:40.142Z,44.82
2023-02-25T12:37:22.589Z,46.15
2023-02-25T12:39:55.461Z,45.91
2023-02-25T12:42:43.722Z,46.10
2023-02-25T12:45:16.838Z,46.62
2023-02-25T12:48:13.379Z,47.13
2023-02-25T12:51:11.464Z,45.88
2023-02-25T12:54:15.768Z,45.35
2023-02-25T12:57:20.684Z,44.05
2023-02-25T13:00:09.796Z,43.29
2023-02-25T13:03:15.607Z,44.20
2023-02-25T13:05:42.982Z,44.29
2023-02-25T13:08:22.268Z,45.11
2023-02-25T13:11:28.127Z,44.96
2023-02-25T13:14:14.792Z,45.86
2023-02-25T13:16:55.544Z,45.98
2023-02-25T13:19:42.960Z,46.08
2023-02-25T13:22:29.049Z,46.55
2023-02-25T13:25:13.612Z,46.83
2023-02-25T13:28:02.541Z,46.95
2023-02-25T13:31:00.701Z,46.76
2023-02-25T13:33:38.160Z,46.75
2023-02-25T13:36:30.657Z,47.12
2023-02-25T13:39:25.348Z,46.49
2023-02-25T13:42:12.507Z,47.11
2023-02-25T13:44:55.800Z,47.66
2023-02-25T13:47:33.420Z,48.38
2023-02-25T13:50:14.922Z,48.04
2023-02-25T13:53:00.258Z,47.95
2023-02-25T13:55:57.800Z,47.76
2023-02-25T13:58:55.248Z,46.51
2023-02-25T14:01:40.456Z,45.81
2023-02-25T14:04:29.992Z,44.06
2023-02-25T14:07:19.315Z,44.32
2023-02-25T14:10:28.057Z,43.35
2023-02-25T14:13:21.065Z,43.53
2023-02-25T14:16:00.031Z,44.05
2023-02-25T14:18:44.702Z,45.02
2023-02-25T14:21:17.320Z,45.72
2023-02-25T14:23:44.556Z,45.96
2023-02-25T14:26:16.998Z,45.41
2023-02-25T14:29:00.809Z,46.07
2023-02-25T14:31:53.767Z,45.05
2023-02-25T14:34:35.819Z,41.92
2023-02-25T14:37:22.794Z,43.51
2023-02-25T14:40:18.177Z,42.72
2023-02-25T14:43:35.433Z,44.15
2023-02-25T14:46:31.143Z,44.44
2023-02-25T14:49:09.873Z,44.27
2023-02-25T14:52:04.130Z,44.99
2023-02-25T14:55:07.974Z,45.86
2023-02-25T14:58:03.267Z,45.49
2023-02-25T15:00:31.184Z,45.08
2023-02-25T15:03:06.804Z,45.02
2023-02-25T15:06:11.072Z,45.56
2023-02-25T15:08:59.241Z,45.96
2023-02-25T15:11:54.461Z,46.46
2023-02-25T15:14:42.615Z,47.18
2023-02-25T15:17:27.404Z,47.35
2023-02-25T15:20:19.349Z,47.78
2023-02-25T15:22:55.585Z,46.23
2023-02-25T15:25:23.692Z,45.37
2023-02-25T15:27:52.360Z,45.21
2023-02-25T15:30:22.283Z,45.31
2023-02-25T15:33:07.838Z,44.74
2023-02-25T15:35:34.660Z,44.39
2023-02-25T15:38:02.279Z,44.70
2023-02-25T15:40:31.857Z,44.83
2023-02-25T15:43:20.028Z,44.22
2023-02-25T15:46:06.945Z,42.97
2023-02-25T15:48:35.819Z,43.18
2023-02-25T15:51:04.300Z,44.02
2023-02-25T15:53:41.184Z,44.18
2023-02-25T15:56:08.538Z,45.81
2023-02-25T15:58:35.227Z,45.61
2023-02-25T16:01:23.148Z,46.70
2023-02-25T16:03:50.358Z,47.34
2023-02-25T16:06:33.380Z,46.87
2023-02-25T16:09:09.159Z,46.92
2023-02-25T16:11:44.652Z,46.63
2023-02-25T16:14:31.917Z,47.09
2023-02-25T16:17:40.204Z,46.99
2023-02-25T16:20:13.476Z,47.70
2023-02-25T16:22:45.287Z,47.25
2023-02-25T16:25:15.940Z,47.10
2023-02-25T16:27:45.601Z,47.42
2023-02-25T16:30:21.184Z,48.06
2023-02-25T16:32:54.816Z,48.39
2023-02-25T16:35:38.540Z,48.67
2023-02-25T16:38:05.267Z,48.77
2023-02-25T16:40:36.066Z,48.91
2023-02-25T16:43:03.227Z,49.11
2023-02-25T16:45:33.607Z,49.54
2023-02-25T16:48:07.165Z,50.58
2023-02-25T16:50:35.329Z,51.63
2023-02-25T16:53:03.431Z,52.28
2023-02-25T16:55:36.675Z,52.69
2023-02-25T16:58:18.518Z,53.20
2023-02-25T17:01:12.223Z,53.96
2023-02-25T17:03:45.568Z,54.50
2023-02-25T17:06:19.145Z,55.18
2023-02-25T17:08:48.352Z,55.43
2023-02-25T17:11:23.418Z,55.91
2023-02-25T17:13:52.313Z,56.25
2023-02-25T17:16:23.953Z,56.14
2023-02-25T17:18:54.840Z,56.17
2023-02-25T17:21:30.347Z,56.49
2023-02-25T17:23:57.872Z,56.51
2023-02-25T17:26:25.367Z,56.56
2023-02-25T17:28:52.802Z,56.11
2023-02-25T17:31:26.878Z,55.60
2023-02-25T17:34:00.584Z,55.82
2023-02-25T17:36:34.915Z,55.23
2023-02-25T17:39:02.859Z,55.31
2023-02-25T17:41:29.539Z,54.81
2023-02-25T17:43:56.275Z,54.96
2023-02-25T17:46:29.146Z,54.97
2023-02-25T17:48:57.303Z,54.79
2023-02-25T17:51:35.895Z,54.20
2023-02-25T17:54:05.619Z,54.30
2023-02-25T17:56:36.682Z,54.25
2023-02-25T17:59:08.598Z,54.57
2023-02-25T18:01:55.620Z,54.14
2023-02-25T18:04:25.232Z,54.32
2023-02-25T18:06:55.610Z,54.35
2023-02-25T18:09:33.804Z,53.95
2023-02-25T18:12:09.447Z,54.27
2023-02-25T18:14:46.723Z,54.19
2023-02-25T18:17:21.260Z,54.03
2023-02-25T18:19:47.951Z,53.90
2023-02-25T18:22:27.001Z,54.19
2023-02-25T18:24:54.593Z,54.13
2023-02-25T18:27:27.597Z,54.15
2023-02-25T18:29:57.573Z,54.05
2023-02-25T18:32:24.507Z,54.07
2023-02-25T18:34:51.371Z,54.26
2023-02-25T18:37:19.004Z,54.10
2023-02-25T18:39:49.911Z,54.14
2023-02-25T18:42:18.283Z,54.21
2023-02-25T18:44:46.460Z,53.84
2023-02-25T18:47:20.829Z,53.97
2023-02-25T18:49:56.602Z,54.19
2023-02-25T18:52:39.072Z,53.71
2023-02-25T18:55:12.501Z,53.66
2023-02-25T18:57:49.137Z,53.97
2023-02-25T19:00:24.034Z,53.86
2023-02-25T19:03:09.461Z,53.91
2023-02-25T19:05:47.444Z,54.02
2023-02-25T19:08:16.649Z,53.76
2023-02-25T19:10:44.575Z,53.93
2023-02-25T19:13:29.142Z,53.97
2023-02-25T19:15:58.745Z,53.62
2023-02-25T19:18:30.724Z,53.48
2023-02-25T19:21:03.341Z,53.57
2023-02-25T19:23:43.045Z,53.34
2023-02-25T19:26:13.926Z,53.03
2023-02-25T19:28:52.727Z,53.05
2023-02-25T19:31:20.777Z,53.24
2023-02-25T19:33:47.477Z,52.88
2023-02-25T19:36:14.327Z,53.02
2023-02-25T19:38:41.015Z,52.57
2023-02-25T19:41:07.756Z,52.73
2023-02-25T19:43:42.969Z,52.70
2023-02-25T19:46:11.256Z,52.10
2023-02-25T19:48:53.701Z,51.85
2023-02-25T19:51:40.088Z,51.86
2023-02-25T19:54:06.873Z,51.46
2023-02-25T19:56:33.574Z,51.60
2023-02-25T19:59:00.414Z,51.17
2023-02-25T20:01:27.807Z,51.22
2023-02-25T20:03:55.246Z,51.18
2023-02-25T20:06:23.683Z,51.08
2023-02-25T20:08:53.141Z,50.80
2023-02-25T20:11:20.077Z,49.96
2023-02-25T20:13:47.121Z,49.90
2023-02-25T20:16:13.951Z,49.91
2023-02-25T20:18:40.928Z,49.63
2023-02-25T20:21:07.980Z,49.07
2023-02-25T20:23:35.108Z,48.67
2023-02-25T20:26:13.842Z,48.56
2023-02-25T20:28:41.377Z,48.73
2023-02-25T20:31:15.529Z,48.35
2023-02-25T20:33:43.977Z,47.79
2023-02-25T20:36:24.320Z,48.04
2023-02-25T20:39:18.550Z,47.84
2023-02-25T20:41:46.876Z,47.93
2023-02-25T20:44:14.689Z,48.38
2023-02-25T20:46:41.573Z,48.33
2023-02-25T20:49:12.829Z,48.46
2023-02-25T20:51:39.909Z,48.51
2023-02-25T20:54:06.940Z,48.70
2023-02-25T20:56:34.705Z,48.85
2023-02-25T20:59:01.609Z,48.84
2023-02-25T21:01:28.437Z,48.96
2023-02-25T21:03:55.696Z,48.83
2023-02-25T21:06:23.758Z,48.71
2023-02-25T21:08:51.775Z,48.86
2023-02-25T21:11:19.888Z,48.98
2023-02-25T21:13:47.623Z,48.75
2023-02-25T21:16:15.806Z,48.75
2023-02-25T21:18:43.592Z,48.75
2023-02-25T21:21:11.362Z,48.77
2023-02-25T21:23:38.056Z,48.59
2023-02-25T21:26:06.208Z,48.44
2023-02-25T21:28:32.946Z,48.74
2023-02-25T21:31:09.096Z,48.88
2023-02-25T21:33:36.849Z,48.85
2023-02-25T21:36:04.406Z,48.84
2023-02-25T21:38:31.234Z,48.68
2023-02-25T21:40:57.926Z,48.82
2023-02-25T21:43:24.711Z,49.12
2023-02-25T21:45:58.829Z,48.93
2023-02-25T21:48:27.390Z,49.24
2023-02-25T21:50:54.341Z,49.44
2023-02-25T21:53:21.909Z,49.52
2023-02-25T21:55:48.579Z,49.31
2023-02-25T21:58:15.721Z,49.45
2023-02-25T22:00:42.703Z,49.52
2023-02-25T22:03:12.309Z,49.57
2023-02-25T22:05:39.927Z,49.72
2023-02-25T22:08:06.763Z,49.62
2023-02-25T22:10:36.339Z,49.99
2023-02-25T22:13:03.169Z,49.61
2023-02-25T22:15:29.915Z,49.63
2023-02-25T22:17:56.609Z,49.83
2023-02-25T22:20:23.407Z,49.95
2023-02-25T22:22:50.174Z,49.91
2023-02-25T22:25:17.210Z,49.63
2023-02-25T22:27:43.860Z,49.93
2023-02-25T22:30:11.311Z,49.65
2023-02-25T22:32:38.150Z,49.42
2023-02-25T22:35:07.686Z,49.90
2023-02-25T22:37:34.489Z,49.54
2023-02-25T22:40:01.247Z,49.92
2023-02-25T22:42:27.909Z,49.45
2023-02-25T22:44:54.709Z,50.09
2023-02-25T22:47:21.479Z,49.83
2023-02-25T22:49:48.240Z,49.95
2023-02-25T22:52:14.937Z,49.89
2023-02-25T22:54:41.785Z,50.13
2023-02-25T22:57:08.473Z,50.15
2023-02-25T22:59:35.740Z,50.16
2023-02-25T23:02:02.777Z,49.79
2023-02-25T23:04:29.585Z,49.27
2023-02-25T23:06:57.234Z,49.40
2023-02-25T23:09:23.993Z,49.66
2023-02-25T23:11:50.725Z,49.14
2023-02-25T23:14:18.255Z,49.54
2023-02-25T23:16:46.021Z,49.60
2023-02-25T23:19:16.186Z,49.39
2023-02-25T23:21:43.374Z,49.08
2023-02-25T23:24:16.121Z,49.04
2023-02-25T23:26:43.972Z,48.88
2023-02-25T23:29:11.509Z,49.08
2023-02-25T23:31:42.623Z,48.83
2023-02-25T23:34:15.441Z,47.81
2023-02-25T23:36:43.688Z,47.60
2023-02-25T23:39:12.992Z,47.65
2023-02-25T23:41:39.895Z,47.15
2023-02-25T23:44:08.549Z,47.28
2023-02-25T23:46:36.295Z,46.63
2023-02-25T23:49:05.917Z,46.51
2023-02-25T23:51:33.785Z,46.49
2023-02-25T23:54:02.755Z,46.15
2023-02-25T23:56:30.922Z,45.86
2023-02-25T23:58:58.235Z,45.79
